Time;durP1;ratioP1;P1;durP2;ratioP2;P2;SDS_P1;SDS_P2;PMS_P1;PMS_P2;Temp;Humidity;BMP_temperature;BMP_pressure;BME280_temperature;BME280_humidity;BME280_pressure;Samples;Min_cycle;Max_cycle;Signal;HPM_P1;HPM_P2
2024/03/06 00:01:36;;;;;;;29.42;14.52;;;;;;;6.05;100.00;101828.75;6087773;19;20013;-81
2024/03/06 00:03:41;;;;;;;31.30;15.68;;;;;;;6.06;100.00;101832.25;6089407;19;20109;-81
2024/03/06 00:05:47;;;;;;;29.75;15.52;;;;;;;6.07;100.00;101847.88;6086392;19;20010;-82
2024/03/06 00:07:52;;;;;;;26.33;13.88;;;;;;;6.12;100.00;101843.50;6085788;19;20010;-81
2024/03/06 00:09:57;;;;;;;28.85;15.23;;;;;;;6.20;100.00;101847.81;6088002;19;19999;-76
2024/03/06 00:12:02;;;;;;;30.75;15.50;;;;;;;6.21;100.00;101844.31;6084837;19;20476;-76
2024/03/06 00:14:05;;;;;;;31.45;15.27;;;;;;;6.29;100.00;101851.25;6085952;19;20099;-76
2024/03/06 00:16:12;;;;;;;29.17;15.65;;;;;;;6.41;100.00;101859.88;6085863;19;20183;-80
2024/03/06 00:18:20;;;;;;;30.80;16.60;;;;;;;6.41;100.00;101863.34;6088222;19;20237;-80
2024/03/06 00:20:27;;;;;;;32.45;17.40;;;;;;;6.40;100.00;101861.63;6086123;19;20006;-82
2024/03/06 00:22:32;;;;;;;33.10;16.30;;;;;;;6.36;100.00;101860.75;6087709;19;19999;-81
2024/03/06 00:24:37;;;;;;;29.17;16.48;;;;;;;6.35;100.00;101866.88;6087888;19;20027;-81
2024/03/06 00:26:43;;;;;;;32.40;16.88;;;;;;;6.39;100.00;101859.88;6084844;19;20014;-81
2024/03/06 00:28:48;;;;;;;33.55;16.88;;;;;;;6.33;100.00;101866.00;6083713;19;20002;-81
2024/03/06 00:30:53;;;;;;;35.20;17.35;;;;;;;6.30;100.00;101863.41;6086215;19;20021;-80
2024/03/06 00:33:00;;;;;;;31.38;17.48;;;;;;;6.28;100.00;101861.69;6085721;19;20018;-81
2024/03/06 00:35:06;;;;;;;30.13;16.75;;;;;;;6.29;100.00;101864.31;6084239;19;20038;-80
2024/03/06 00:37:11;;;;;;;31.50;15.80;;;;;;;6.28;100.00;101867.78;6086871;19;20006;-81
2024/03/06 00:39:17;;;;;;;29.02;16.55;;;;;;;6.31;100.00;101872.09;6085300;19;20534;-81
2024/03/06 00:41:22;;;;;;;26.83;15.68;;;;;;;6.32;100.00;101871.25;6088490;19;20624;-81
2024/03/06 00:43:25;;;;;;;31.20;16.52;;;;;;;6.35;100.00;101874.69;6086817;19;20024;-80
2024/03/06 00:45:31;;;;;;;30.33;16.70;;;;;;;6.36;100.00;101870.34;6083782;19;20406;-81
2024/03/06 00:47:37;;;;;;;29.40;15.85;;;;;;;6.37;100.00;101880.78;6085007;19;20034;-81
2024/03/06 00:49:44;;;;;;;30.15;17.45;;;;;;;6.37;100.00;101872.94;6084132;19;20200;-81
2024/03/06 00:51:49;;;;;;;32.35;18.88;;;;;;;6.40;100.00;101881.63;6084291;19;20013;-81
2024/03/06 00:53:54;;;;;;;29.00;16.63;;;;;;;6.40;100.00;101874.69;6082738;19;20110;-81
2024/03/06 00:55:59;;;;;;;31.13;17.65;;;;;;;6.41;100.00;101880.75;6085634;19;20014;-81
2024/03/06 00:58:06;;;;;;;32.85;16.63;;;;;;;6.44;100.00;101880.72;6087835;19;20023;-80
2024/03/06 01:00:13;;;;;;;30.02;17.20;;;;;;;6.43;100.00;101877.25;6085534;19;20011;-80
2024/03/06 01:02:18;;;;;;;34.03;16.98;;;;;;;6.46;100.00;101876.38;6078817;19;20015;-80
2024/03/06 01:04:23;;;;;;;27.73;17.15;;;;;;;6.45;100.00;101885.06;6087312;19;20018;-80
2024/03/06 01:06:30;;;;;;;27.92;15.98;;;;;;;6.51;100.00;101883.28;6085004;19;20416;-80
2024/03/06 01:08:36;;;;;;;31.92;17.42;;;;;;;6.48;100.00;101883.31;6081888;19;20008;-81
2024/03/06 01:10:41;;;;;;;31.42;17.48;;;;;;;6.44;100.00;101883.34;6087119;19;20032;-80
2024/03/06 01:12:45;;;;;;;30.02;16.63;;;;;;;6.52;100.00;101886.75;6085917;19;20018;-81
2024/03/06 01:14:50;;;;;;;30.42;17.10;;;;;;;6.54;100.00;101885.00;6086362;19;20426;-80
2024/03/06 01:16:55;;;;;;;31.52;16.52;;;;;;;6.52;100.00;101882.41;6084559;19;20014;-80
2024/03/06 01:19:00;;;;;;;32.00;17.95;;;;;;;6.57;100.00;101885.00;6087499;19;20038;-81
2024/03/06 01:21:06;;;;;;;31.02;17.77;;;;;;;6.50;100.00;101889.41;6086661;19;20017;-80
2024/03/06 01:23:13;;;;;;;32.30;17.17;;;;;;;6.49;100.00;101882.44;6088428;19;20038;-81
2024/03/06 01:25:21;;;;;;;28.00;17.35;;;;;;;6.45;100.00;101885.06;6089426;19;20547;-80
2024/03/06 01:27:26;;;;;;;28.23;16.92;;;;;;;6.44;100.00;101888.56;6090674;19;20010;-82
2024/03/06 01:29:31;;;;;;;29.85;18.70;;;;;;;6.44;100.00;101884.19;6088761;19;20078;-81
2024/03/06 01:31:36;;;;;;;28.80;17.23;;;;;;;6.44;100.00;101884.19;6090833;19;20042;-83
2024/03/06 01:33:41;;;;;;;28.50;18.23;;;;;;;6.45;100.00;101891.19;6088596;19;20074;-80
2024/03/06 01:35:43;;;;;;;29.13;16.65;;;;;;;6.52;100.00;101892.84;6088577;19;20042;-76
2024/03/06 01:37:48;;;;;;;32.83;17.98;;;;;;;6.50;100.00;101889.41;6081488;19;20031;-76
2024/03/06 01:39:56;;;;;;;28.67;16.70;;;;;;;6.52;100.00;101894.59;6083373;19;20145;-76
2024/03/06 01:42:01;;;;;;;29.17;17.08;;;;;;;6.49;100.00;101892.88;6083611;19;20412;-77
2024/03/06 01:44:06;;;;;;;28.88;17.15;;;;;;;6.51;100.00;101909.41;6083340;19;20014;-81
2024/03/06 01:46:11;;;;;;;32.33;19.77;;;;;;;6.58;100.00;101900.66;6085287;19;20015;-81
2024/03/06 01:48:14;;;;;;;32.22;17.10;;;;;;;6.56;100.00;101897.19;6079671;19;20491;-77
2024/03/06 01:50:20;;;;;;;33.42;17.48;;;;;;;6.53;100.00;101899.81;6082096;19;20472;-76
2024/03/06 01:52:27;;;;;;;30.65;17.23;;;;;;;6.52;100.00;101899.81;6083825;19;20014;-76
2024/03/06 01:54:33;;;;;;;29.20;16.55;;;;;;;6.47;100.00;101906.81;6083415;19;20010;-77
2024/03/06 01:56:46;;;;;;;29.40;16.67;;;;;;;6.44;100.00;101902.47;6083835;19;20074;-77
2024/03/06 01:58:52;;;;;;;30.17;16.17;;;;;;;6.45;100.00;101906.84;6083217;19;20029;-76
2024/03/06 02:01:01;;;;;;;31.35;18.70;;;;;;;6.50;100.00;101912.91;6081571;19;20097;-77
2024/03/06 02:03:06;;;;;;;27.20;16.13;;;;;;;6.57;100.00;101911.97;6083713;19;20019;-75
2024/03/06 02:05:12;;;;;;;27.13;16.45;;;;;;;6.66;100.00;101923.22;6081137;19;20035;-76
2024/03/06 02:07:21;;;;;;;29.15;17.45;;;;;;;6.68;100.00;101918.88;6082889;19;20452;-76
2024/03/06 02:09:27;;;;;;;28.80;16.35;;;;;;;6.60;100.00;101917.16;6082164;19;20043;-81
2024/03/06 02:11:34;;;;;;;32.80;18.60;;;;;;;6.60;100.00;101922.38;6083245;19;20006;-80
2024/03/06 02:13:43;;;;;;;30.52;18.33;;;;;;;6.57;100.00;101919.81;6085585;19;20018;-81
2024/03/06 02:15:48;;;;;;;28.10;15.98;;;;;;;6.58;100.00;101918.03;6084529;19;20007;-81
2024/03/06 02:17:53;;;;;;;31.55;17.92;;;;;;;6.64;100.00;101919.78;6084522;19;20070;-81
2024/03/06 02:20:00;;;;;;;29.75;17.50;;;;;;;6.63;100.00;101925.88;6081155;19;20321;-83
2024/03/06 02:22:05;;;;;;;26.65;17.70;;;;;;;6.65;100.00;101924.13;6087664;19;20010;-82
2024/03/06 02:24:11;;;;;;;34.58;18.70;;;;;;;6.66;100.00;101918.00;6089274;19;20545;-79
2024/03/06 02:26:16;;;;;;;33.97;17.52;;;;;;;6.63;100.00;101923.25;6087553;19;20010;-82
2024/03/06 02:28:22;;;;;;;30.17;18.23;;;;;;;6.49;100.00;101916.38;6087901;19;20003;-82
2024/03/06 02:30:27;;;;;;;35.30;19.60;;;;;;;6.43;100.00;101918.16;6085372;19;20027;-80
2024/03/06 02:32:34;;;;;;;34.97;18.60;;;;;;;6.40;100.00;101916.44;6086421;19;20042;-81
2024/03/06 02:34:40;;;;;;;29.67;16.63;;;;;;;6.34;100.00;101917.31;6086288;19;20059;-80
2024/03/06 02:36:45;;;;;;;34.75;18.73;;;;;;;6.30;100.00;101928.69;6086196;19;20007;-80
2024/03/06 02:38:53;;;;;;;31.65;19.17;;;;;;;6.18;100.00;101925.25;6084793;19;20017;-81
2024/03/06 02:40:58;;;;;;;29.35;17.33;;;;;;;6.10;100.00;101920.06;6082722;19;20018;-81
2024/03/06 02:43:04;;;;;;;33.72;17.73;;;;;;;6.14;100.00;101930.50;6083703;19;20006;-80
2024/03/06 02:45:10;;;;;;;34.13;19.55;;;;;;;6.09;100.00;101928.78;6082882;19;20015;-80
2024/03/06 02:47:15;;;;;;;29.73;16.90;;;;;;;6.06;100.00;101923.59;6082249;19;20371;-81
2024/03/06 02:49:21;;;;;;;35.08;18.90;;;;;;;6.03;100.00;101923.56;6081230;19;20011;-82
2024/03/06 02:51:24;;;;;;;31.45;18.35;;;;;;;6.07;100.00;101917.47;6083703;19;20049;-81
2024/03/06 02:53:29;;;;;;;35.88;18.63;;;;;;;6.08;100.00;101924.41;6078956;19;20382;-80
2024/03/06 02:55:37;;;;;;;32.03;17.25;;;;;;;6.00;100.00;101921.84;6082097;19;20011;-80
2024/03/06 02:57:41;;;;;;;29.40;17.63;;;;;;;6.03;100.00;101920.97;6083268;19;20006;-78
2024/03/06 02:59:47;;;;;;;29.63;16.92;;;;;;;6.06;100.00;101919.22;6080233;19;20098;-79
2024/03/06 03:01:52;;;;;;;32.75;18.13;;;;;;;6.05;100.00;101927.03;6080935;19;20030;-80
2024/03/06 03:03:55;;;;;;;28.42;17.65;;;;;;;5.93;100.00;101925.34;6079137;19;20097;-80
2024/03/06 03:06:01;;;;;;;36.65;20.23;;;;;;;5.97;100.00;101934.03;6082331;19;20074;-81
2024/03/06 03:08:09;;;;;;;32.35;19.05;;;;;;;5.87;100.00;101934.06;6082516;19;20038;-81
2024/03/06 03:10:12;;;;;;;31.55;18.15;;;;;;;5.82;100.00;101935.81;6079503;19;19999;-81
2024/03/06 03:12:19;;;;;;;32.67;19.42;;;;;;;5.84;100.00;101934.03;6081614;19;20006;-81
2024/03/06 03:14:25;;;;;;;29.80;17.90;;;;;;;5.78;100.00;101931.47;6082722;19;20039;-81
2024/03/06 03:16:28;;;;;;;29.05;19.38;;;;;;;5.76;100.00;101935.81;6082507;19;20018;-80
2024/03/06 03:18:32;;;;;;;31.98;19.98;;;;;;;5.71;100.00;101930.63;6081141;19;20040;-81
2024/03/06 03:20:38;;;;;;;32.53;19.00;;;;;;;5.64;100.00;101931.50;6081225;19;20006;-80
2024/03/06 03:22:43;;;;;;;32.28;18.38;;;;;;;5.62;100.00;101935.84;6079811;19;20034;-80
2024/03/06 03:24:48;;;;;;;35.80;21.83;;;;;;;5.65;100.00;101942.81;6082771;19;20351;-81
2024/03/06 03:26:53;;;;;;;31.95;18.30;;;;;;;5.71;100.00;101938.47;6079717;19;20091;-81
2024/03/06 03:29:02;;;;;;;33.53;18.75;;;;;;;5.69;100.00;101940.19;6082204;19;20006;-80
2024/03/06 03:31:08;;;;;;;34.47;19.42;;;;;;;5.63;100.00;101940.19;6084664;19;19999;-80
2024/03/06 03:33:14;;;;;;;34.08;19.38;;;;;;;5.63;100.00;101940.19;6087598;19;20013;-80
2024/03/06 03:35:25;;;;;;;31.92;19.33;;;;;;;5.66;100.00;101945.41;6089433;19;20007;-81
2024/03/06 03:37:30;;;;;;;34.97;19.90;;;;;;;5.65;100.00;101940.19;6088567;19;20035;-75
2024/03/06 03:39:36;;;;;;;27.25;19.00;;;;;;;5.63;100.00;101945.41;6086932;19;20026;-76
2024/03/06 03:41:42;;;;;;;28.00;17.98;;;;;;;5.57;100.00;101939.34;6087350;19;20010;-76
2024/03/06 03:43:48;;;;;;;32.35;18.58;;;;;;;5.52;100.00;101941.97;6086682;19;20046;-76
2024/03/06 03:45:56;;;;;;;36.15;20.85;;;;;;;5.53;100.00;101943.72;6085842;19;20034;-76
2024/03/06 03:48:02;;;;;;;38.03;19.38;;;;;;;5.59;100.00;101943.69;6086665;19;20017;-76
2024/03/06 03:50:09;;;;;;;30.13;19.77;;;;;;;5.60;100.00;101939.34;6086122;19;20006;-76
2024/03/06 03:52:18;;;;;;;29.45;18.30;;;;;;;5.61;100.00;101936.75;6085695;19;20035;-76
2024/03/06 03:54:23;;;;;;;34.15;19.88;;;;;;;5.56;100.00;101940.22;6084292;19;20027;-76
2024/03/06 03:56:29;;;;;;;32.00;18.55;;;;;;;5.47;100.00;101938.50;6089338;19;20027;-80
2024/03/06 03:58:34;;;;;;;31.15;19.42;;;;;;;5.46;100.00;101947.19;6085225;19;20019;-76
2024/03/06 04:00:40;;;;;;;38.30;21.02;;;;;;;5.48;100.00;101942.84;6084930;19;20011;-76
2024/03/06 04:02:47;;;;;;;39.83;22.30;;;;;;;5.43;100.00;101948.06;6084970;19;20491;-76
2024/03/06 04:04:53;;;;;;;40.45;21.00;;;;;;;5.42;100.00;101946.31;6085455;19;20042;-77
2024/03/06 04:07:01;;;;;;;31.27;19.63;;;;;;;5.38;100.00;101948.94;6086563;19;20021;-76
2024/03/06 04:09:09;;;;;;;38.20;21.83;;;;;;;5.35;100.00;101948.94;6087255;19;20471;-77
2024/03/06 04:11:14;;;;;;;28.42;18.17;;;;;;;5.34;100.00;101953.28;6086716;19;20042;-75
2024/03/06 04:13:20;;;;;;;37.50;20.40;;;;;;;5.27;100.00;101952.44;6085543;19;20010;-76
2024/03/06 04:15:27;;;;;;;37.85;20.63;;;;;;;5.28;100.00;101956.75;6083508;19;20030;-76
2024/03/06 04:17:32;;;;;;;31.98;18.25;;;;;;;5.24;100.00;101949.81;6084780;19;20006;-76
2024/03/06 04:19:40;;;;;;;32.90;20.30;;;;;;;5.25;100.00;101956.75;6084342;19;20011;-76
2024/03/06 04:21:45;;;;;;;33.22;20.70;;;;;;;5.20;100.00;101958.50;6085771;19;20007;-75
2024/03/06 04:23:50;;;;;;;36.88;20.92;;;;;;;5.17;100.00;101955.03;6085153;19;20007;-76
2024/03/06 04:25:55;;;;;;;34.28;21.05;;;;;;;4.99;100.00;101954.16;6086698;19;20505;-75
2024/03/06 04:27:58;;;;;;;35.58;21.25;;;;;;;4.89;100.00;101959.34;6086313;19;20019;-76
2024/03/06 04:30:05;;;;;;;35.80;21.65;;;;;;;4.77;100.00;101955.88;6086447;19;20360;-76
2024/03/06 04:32:10;;;;;;;34.10;18.77;;;;;;;4.76;100.00;101963.69;6088582;19;20010;-76
2024/03/06 04:34:16;;;;;;;35.72;20.90;;;;;;;4.74;100.00;101961.09;6087730;19;20026;-76
2024/03/06 04:36:26;;;;;;;31.23;18.08;;;;;;;4.67;100.00;101961.06;6085684;19;20007;-76
2024/03/06 04:38:31;;;;;;;35.80;20.15;;;;;;;4.60;100.00;101968.84;6084557;19;20002;-76
2024/03/06 04:40:34;;;;;;;33.97;20.15;;;;;;;4.55;100.00;101965.38;6086975;19;20038;-76
2024/03/06 04:42:39;;;;;;;30.45;17.70;;;;;;;4.45;100.00;101966.25;6078987;19;20028;-77
2024/03/06 04:44:44;;;;;;;28.02;16.83;;;;;;;4.34;100.00;101966.16;6085070;19;20023;-76
2024/03/06 04:46:52;;;;;;;28.98;16.50;;;;;;;4.31;100.00;101975.72;6083663;19;20014;-76
2024/03/06 04:48:57;;;;;;;27.20;16.45;;;;;;;4.26;100.00;101973.09;6084992;19;20015;-76
2024/03/06 04:51:02;;;;;;;30.85;18.65;;;;;;;4.21;100.00;101980.00;6084333;19;20085;-76
2024/03/06 04:53:10;;;;;;;33.30;18.25;;;;;;;4.22;100.00;101981.75;6081743;19;20006;-76
2024/03/06 04:55:20;;;;;;;31.33;18.77;;;;;;;4.17;100.00;101986.94;6085767;19;20007;-76
2024/03/06 04:57:28;;;;;;;31.27;18.70;;;;;;;4.18;100.00;101995.59;6082690;19;20732;-76
2024/03/06 04:59:33;;;;;;;31.85;19.80;;;;;;;4.20;100.00;101993.03;6082896;19;20647;-76
2024/03/06 05:01:38;;;;;;;29.48;16.85;;;;;;;4.31;100.00;101997.38;6084124;19;20380;-76
2024/03/06 05:03:43;;;;;;;33.55;19.67;;;;;;;4.36;100.00;101994.81;6083899;19;20031;-76
2024/03/06 05:06:02;;;;;;;29.42;19.08;;;;;;;4.28;100.00;102006.94;6085572;19;20013;-76
2024/03/06 05:08:24;;;;;;;36.30;18.38;;;;;;;4.17;100.00;102004.28;6082896;19;20021;-76
2024/03/06 05:10:43;;;;;;;33.33;19.17;;;;;;;4.15;100.00;102006.88;6079107;19;20029;-75
2024/03/06 05:13:02;;;;;;;31.77;17.95;;;;;;;4.06;100.00;102006.84;6085719;19;20021;-76
2024/03/06 05:15:23;;;;;;;24.17;15.82;;;;;;;3.97;100.00;102007.63;6086704;19;20409;-76
2024/03/06 05:17:43;;;;;;;28.38;19.15;;;;;;;3.92;100.00;102009.38;6088098;19;20017;-76
2024/03/06 05:20:03;;;;;;;28.90;16.95;;;;;;;3.90;100.00;102016.28;6086494;19;20333;-77
2024/03/06 05:22:22;;;;;;;28.77;17.38;;;;;;;3.90;100.00;102016.28;6087812;19;20002;-76
2024/03/06 05:24:45;;;;;;;33.00;17.17;;;;;;;3.82;100.00;102017.06;6086805;19;20040;-76
2024/03/06 05:27:04;;;;;;;29.65;16.70;;;;;;;3.72;100.00;102016.16;5985367;19;2004819;-75
2024/03/06 05:29:22;;;;;;;28.33;16.90;;;;;;;3.62;100.00;102020.44;6090550;19;20609;-76
2024/03/06 05:31:41;;;;;;;29.52;17.13;;;;;;;3.61;100.00;102031.69;6087723;19;20020;-77
2024/03/06 05:33:58;;;;;;;29.35;16.67;;;;;;;3.55;100.00;102023.81;6089395;19;20007;-82
2024/03/06 05:36:17;;;;;;;33.53;19.13;;;;;;;3.53;100.00;102020.38;6093698;19;20113;-82
2024/03/06 05:38:36;;;;;;;27.10;17.00;;;;;;;3.47;100.00;102021.16;6089416;19;20015;-80
2024/03/06 05:40:58;;;;;;;30.88;17.52;;;;;;;3.41;100.00;102026.31;6085280;19;20446;-78
2024/03/06 05:43:16;;;;;;;27.38;15.50;;;;;;;3.35;100.00;102033.22;6088080;19;20010;-81
2024/03/06 05:45:39;;;;;;;28.27;16.83;;;;;;;3.28;100.00;102038.34;6087347;19;20017;-80
2024/03/06 05:47:58;;;;;;;30.60;17.47;;;;;;;3.26;100.00;102032.25;6087336;19;20011;-81
2024/03/06 05:50:19;;;;;;;30.90;16.63;;;;;;;3.23;100.00;102036.56;6086371;19;20312;-80
2024/03/06 06:44:13;;;;;;;29.33;15.98;;;;;;;3.20;100.00;102123.13;5977982;19;2004637;-80
2024/03/06 06:46:18;;;;;;;21.85;14.35;;;;;;;3.16;100.00;102116.16;6085979;19;20476;-80
2024/03/06 06:48:28;;;;;;;26.02;18.40;;;;;;;3.16;100.00;102116.16;6085197;19;20006;-80
2024/03/06 06:50:33;;;;;;;27.38;15.60;;;;;;;3.16;100.00;102123.97;6089822;19;20581;-81
2024/03/06 06:52:41;;;;;;;22.92;15.55;;;;;;;3.19;100.00;102126.59;6088116;19;20003;-80
2024/03/06 06:54:49;;;;;;;39.78;17.35;;;;;;;3.26;100.00;102137.91;6091116;19;20081;-79
2024/03/06 06:56:59;;;;;;;24.13;17.00;;;;;;;3.25;100.00;102141.34;6086907;19;20086;-80
2024/03/06 06:59:04;;;;;;;24.25;15.90;;;;;;;3.29;100.00;102143.13;6091786;19;20015;-81
2024/03/06 07:01:12;;;;;;;31.15;15.55;;;;;;;3.32;100.00;102145.78;6090301;19;20011;-81
2024/03/06 07:03:15;;;;;;;24.70;14.73;;;;;;;3.34;100.00;102144.03;6086074;19;20082;-76
2024/03/06 07:05:19;;;;;;;23.88;15.65;;;;;;;3.35;100.00;102153.59;6086937;19;20552;-76
2024/03/06 07:07:27;;;;;;;25.63;15.68;;;;;;;3.43;100.00;102153.69;6090764;19;20015;-81
2024/03/06 07:09:33;;;;;;;30.70;16.42;;;;;;;3.50;100.00;102153.75;6093196;19;20007;-80
2024/03/06 07:11:41;;;;;;;30.10;16.45;;;;;;;3.59;100.00;102158.16;6090889;19;20014;-76
2024/03/06 07:13:47;;;;;;;33.38;17.77;;;;;;;3.68;100.00;102165.16;6091155;19;20113;-77
2024/03/06 07:15:52;;;;;;;29.77;16.50;;;;;;;3.73;100.00;102169.53;6088680;19;20011;-76
2024/03/06 07:18:00;;;;;;;26.10;16.65;;;;;;;3.85;100.00;102163.59;6083327;19;20006;-76
2024/03/06 07:20:04;;;;;;;27.55;17.67;;;;;;;3.89;100.00;102165.34;6084353;19;20705;-74
2024/03/06 07:22:10;;;;;;;27.33;17.45;;;;;;;3.97;100.00;102168.88;6085221;19;20015;-75
2024/03/06 07:24:16;;;;;;;22.60;15.18;;;;;;;4.03;100.00;102175.00;6088024;19;20011;-75
2024/03/06 07:26:22;;;;;;;30.40;17.77;;;;;;;4.06;100.00;102180.25;6087983;19;20281;-75
2024/03/06 07:28:28;;;;;;;28.92;18.95;;;;;;;4.07;100.00;102180.25;6089223;19;20501;-79
2024/03/06 07:30:34;;;;;;;25.63;17.08;;;;;;;4.10;100.00;102179.41;6088220;19;20006;-76
2024/03/06 07:32:41;;;;;;;27.67;16.75;;;;;;;4.11;100.00;102187.22;6087982;19;20113;-76
2024/03/06 07:34:50;;;;;;;27.98;17.23;;;;;;;4.15;100.00;102188.97;6083245;19;20010;-75
2024/03/06 07:36:56;;;;;;;31.38;16.80;;;;;;;4.21;100.00;102187.28;6086875;19;20086;-79
2024/03/06 07:39:01;;;;;;;29.92;17.45;;;;;;;4.32;100.00;102194.31;6088634;19;20006;-80
2024/03/06 07:41:06;;;;;;;29.38;19.60;;;;;;;4.32;100.00;102193.47;6087735;19;20082;-76
2024/03/06 07:43:14;;;;;;;29.08;18.00;;;;;;;4.34;100.00;102195.19;6089230;19;20392;-80
2024/03/06 07:45:21;;;;;;;31.17;19.75;;;;;;;4.45;100.00;102207.41;6087524;19;20035;-80
2024/03/06 07:47:30;;;;;;;29.83;19.05;;;;;;;4.57;100.00;102202.28;6089265;19;20387;-80
2024/03/06 07:49:37;;;;;;;31.88;19.05;;;;;;;4.61;100.00;102204.91;6090168;19;20038;-79
2024/03/06 07:51:45;;;;;;;35.28;21.40;;;;;;;4.67;100.00;102208.44;6087946;19;20014;-79
2024/03/06 07:53:52;;;;;;;36.35;21.25;;;;;;;4.74;100.00;102213.69;6088195;19;20478;-80
2024/03/06 07:55:57;;;;;;;29.23;19.20;;;;;;;4.78;100.00;102212.81;6088467;19;20034;-82
2024/03/06 07:58:02;;;;;;;32.55;19.77;;;;;;;4.87;100.00;102218.94;6089388;19;20423;-77
2024/03/06 08:00:14;;;;;;;39.20;20.70;;;;;;;4.86;100.00;102220.66;6088088;19;20027;-77
2024/03/06 08:02:18;;;;;;;30.25;20.05;;;;;;;4.91;100.00;102224.19;5993135;19;2004839;-76
2024/03/06 08:04:23;;;;;;;35.05;22.40;;;;;;;4.89;100.00;102220.69;6086813;19;20435;-77
2024/03/06 08:06:32;;;;;;;38.58;22.05;;;;;;;4.98;100.00;102227.69;6085429;19;20003;-78
2024/03/06 08:08:44;;;;;;;33.75;19.70;;;;;;;5.06;100.00;102229.47;6087034;19;20014;-77
2024/03/06 08:10:49;;;;;;;36.53;22.30;;;;;;;5.14;100.00;102228.63;6087743;19;20359;-76
2024/03/06 08:12:57;;;;;;;36.55;22.77;;;;;;;5.23;100.00;102229.53;6090273;19;20196;-77
2024/03/06 08:15:02;;;;;;;38.17;22.73;;;;;;;5.33;100.00;102235.66;6088161;19;20010;-79
2024/03/06 08:17:07;;;;;;;35.17;21.67;;;;;;;5.43;100.00;102234.81;6087074;19;20767;-79
2024/03/06 08:19:12;;;;;;;39.90;23.50;;;;;;;5.45;100.00;102238.31;6089127;19;20022;-78
2024/03/06 08:21:22;;;;;;;36.85;23.65;;;;;;;5.62;100.00;102242.69;6089255;19;20031;-78
2024/03/06 08:23:28;;;;;;;40.40;25.10;;;;;;;5.72;100.00;102242.72;6092526;19;20677;-76
2024/03/06 08:25:36;;;;;;;38.10;23.40;;;;;;;5.76;100.00;102243.59;6093092;19;20010;-76
2024/03/06 08:27:43;;;;;;;39.72;24.23;;;;;;;5.80;100.00;102239.25;6091210;19;20630;-76
2024/03/06 08:29:45;;;;;;;39.28;23.67;;;;;;;5.97;100.00;102242.78;6085066;19;20010;-77
2024/03/06 08:31:50;;;;;;;37.53;23.83;;;;;;;6.03;100.00;102241.91;6091563;19;20020;-78
2024/03/06 08:33:55;;;;;;;38.60;25.20;;;;;;;6.20;100.00;102241.94;6091085;19;20587;-78
2024/03/06 08:36:01;;;;;;;37.70;23.63;;;;;;;6.33;100.00;102246.28;6092564;19;20007;-78
2024/03/06 08:38:06;;;;;;;37.83;24.38;;;;;;;6.62;100.00;102246.25;6089350;19;20022;-78
2024/03/06 08:40:14;;;;;;;39.08;24.25;;;;;;;6.81;100.00;102242.72;6087941;19;20034;-77
2024/03/06 08:42:22;;;;;;;45.55;25.45;;;;;;;6.87;100.00;102248.81;6087022;19;20502;-78
2024/03/06 08:44:30;;;;;;;43.45;26.50;;;;;;;7.23;100.00;102245.22;6089668;19;20424;-79
2024/03/06 08:46:35;;;;;;;49.53;28.45;;;;;;;7.52;100.00;102250.31;6087375;19;20344;-77
2024/03/06 08:48:40;;;;;;;44.15;27.05;;;;;;;7.59;100.00;102252.03;6088211;19;20008;-76
2024/03/06 08:50:46;;;;;;;47.67;26.98;;;;;;;7.66;100.00;102258.97;6087555;19;20031;-76
2024/03/06 08:52:51;;;;;;;40.20;26.90;;;;;;;7.67;100.00;102259.84;6082577;19;20700;-76
2024/03/06 08:54:54;;;;;;;43.50;25.23;;;;;;;7.63;100.00;102256.34;6086814;19;20010;-78
2024/03/06 08:57:00;;;;;;;50.15;27.15;;;;;;;7.70;100.00;102254.56;6088975;19;20433;-76
2024/03/06 08:59:07;;;;;;;46.25;27.63;;;;;;;7.95;100.00;102260.50;6087806;19;20013;-75
2024/03/06 09:01:10;;;;;;;43.72;27.38;;;;;;;8.05;100.00;102262.19;6089336;19;20007;-78
2024/03/06 09:03:15;;;;;;;44.55;25.75;;;;;;;8.10;100.00;102263.03;6084713;19;20006;-75
2024/03/06 09:05:23;;;;;;;44.38;24.75;;;;;;;8.22;100.00;102267.31;6086194;19;20484;-75
2024/03/06 09:07:37;;;;;;;40.65;24.95;;;;;;;8.19;100.00;102264.72;6085006;19;20011;-76
2024/03/06 09:09:42;;;;;;;30.67;22.38;;;;;;;8.23;100.00;102266.44;6086512;19;20466;-76
2024/03/06 09:11:47;;;;;;;39.03;24.95;;;;;;;8.29;100.00;102271.63;6086398;19;20013;-75
2024/03/06 09:13:52;;;;;;;35.15;24.00;;;;;;;8.30;100.00;102268.13;6086361;19;20387;-77
2024/03/06 09:15:59;;;;;;;39.20;24.40;;;;;;;8.53;100.00;102267.06;6087886;19;20031;-76
2024/03/06 09:18:06;;;;;;;34.60;21.55;;;;;;;8.45;100.00;102272.41;6087088;19;20006;-76
2024/03/06 09:20:12;;;;;;;35.58;21.98;;;;;;;8.78;100.00;102268.59;6086782;19;20007;-76
2024/03/06 09:22:19;;;;;;;40.05;22.52;;;;;;;8.66;100.00;102268.72;6083306;19;20014;-75
2024/03/06 09:24:27;;;;;;;35.25;23.42;;;;;;;8.91;100.00;102276.34;6078673;19;20487;-78
2024/03/06 09:26:37;;;;;;;37.45;21.70;;;;;;;9.07;100.00;102271.78;6086194;19;20078;-77
2024/03/06 09:28:42;;;;;;;39.17;21.85;;;;;;;9.13;100.00;102277.81;6090447;19;20053;-77
2024/03/06 09:30:47;;;;;;;37.10;23.05;;;;;;;9.31;100.00;102275.88;6086871;19;20051;-78
2024/03/06 09:32:55;;;;;;;38.63;22.15;;;;;;;9.50;100.00;102277.38;6088431;19;20010;-76
2024/03/06 09:34:58;;;;;;;38.55;23.83;;;;;;;9.55;100.00;102272.94;6090014;19;20014;-77
2024/03/06 09:37:03;;;;;;;33.67;21.80;;;;;;;9.71;100.00;102270.97;6089547;19;20024;-76
2024/03/06 09:39:09;;;;;;;35.72;20.27;;;;;;;9.82;100.00;102276.06;6091228;19;20031;-77
2024/03/06 09:41:14;;;;;;;36.35;21.13;;;;;;;9.95;100.00;102277.63;6091452;19;20089;-77
2024/03/06 09:43:17;;;;;;;31.45;21.33;;;;;;;9.92;100.00;102277.66;6091179;19;20762;-78
2024/03/06 09:45:23;;;;;;;33.20;20.80;;;;;;;10.08;100.00;102281.81;6095647;19;20006;-79
2024/03/06 09:47:34;;;;;;;35.13;20.35;;;;;;;10.26;100.00;102279.78;6096496;19;20056;-79
2024/03/06 09:49:43;;;;;;;36.28;21.52;;;;;;;10.59;100.00;102288.91;6093628;19;20011;-77
2024/03/06 09:51:52;;;;;;;37.85;21.95;;;;;;;10.69;100.00;102279.97;6091596;19;20030;-80
2024/03/06 09:53:55;;;;;;;29.83;20.15;;;;;;;10.74;100.00;102283.38;6087180;19;20023;-77
2024/03/06 09:56:01;;;;;;;32.38;18.52;;;;;;;10.85;100.00;102283.19;6090660;19;20014;-77
2024/03/06 09:58:08;;;;;;;30.55;17.75;;;;;;;10.84;100.00;102291.94;6089975;19;20006;-78
2024/03/06 10:00:14;;;;;;;31.10;16.67;;;;;;;10.35;100.00;102290.19;6085477;19;20232;-76
2024/03/06 10:02:33;;;;;;;29.38;17.08;;;;;;;10.32;100.00;102296.34;6081480;19;20011;-76
2024/03/06 10:04:41;;;;;;;26.45;16.05;;;;;;;10.65;100.00;102291.41;6085268;19;21092;-76
2024/03/06 10:06:46;;;;;;;26.30;15.70;;;;;;;11.11;100.00;102287.94;6085826;19;20014;-75
2024/03/06 10:08:53;;;;;;;28.70;16.50;;;;;;;11.10;100.00;102293.22;6082132;19;20439;-75
2024/03/06 10:10:59;;;;;;;25.23;14.82;;;;;;;11.46;100.00;102291.63;6084155;19;20010;-75
2024/03/06 10:13:07;;;;;;;27.38;14.73;;;;;;;11.42;100.00;102290.81;6081926;19;20046;-78
2024/03/06 10:15:12;;;;;;;17.27;10.82;;;;;;;11.41;100.00;102296.97;6083808;19;20042;-78
2024/03/06 10:17:26;;;;;;;21.10;10.55;;;;;;;11.28;100.00;102294.63;6084646;19;20034;-78
2024/03/06 10:19:33;;;;;;;20.08;11.50;;;;;;;11.64;100.00;102293.00;6083106;19;20017;-78
2024/03/06 10:21:48;;;;;;;20.95;10.75;;;;;;;11.52;100.00;102303.78;6086159;19;20015;-77
2024/03/06 10:24:00;;;;;;;16.63;10.45;;;;;;;11.47;100.00;102305.66;6076504;19;20013;-78
2024/03/06 10:26:09;;;;;;;19.83;9.70;;;;;;;11.70;100.00;102305.16;6084936;19;20041;-79
2024/03/06 10:28:12;;;;;;;16.13;9.70;;;;;;;11.90;100.00;102310.91;6083151;19;20304;-80
2024/03/06 10:30:18;;;;;;;;;;;;;;;11.69;100.00;102304.31;6086452;19;20010;-79